Time;durP1;ratioP1;P1;durP2;ratioP2;P2;SDS_P1;SDS_P2;PMS_P1;PMS_P2;Temp;Humidity;BMP_temperature;BMP_pressure;BME280_temperature;BME280_humidity;BME280_pressure;Samples;Min_cycle;Max_cycle;Signal;HPM_P1;HPM_P2
2022/03/19 06:00:44;;;;;;;45.73;40.33;;;8.50;97.20;;;;;;1713273;28;20222;-77
2022/03/19 06:01:35;;;;;;;43.67;38.90;;;8.50;97.20;;;;;;1712581;28;20206;-76
2022/03/19 06:02:27;;;;;;;47.50;42.30;;;8.40;97.20;;;;;;1714284;28;20293;-76
2022/03/19 06:03:18;;;;;;;43.78;39.15;;;8.40;97.20;;;;;;1711151;28;20209;-76
2022/03/19 06:04:09;;;;;;;46.27;41.27;;;8.40;97.20;;;;;;1707834;28;20209;-77
2022/03/19 06:05:00;;;;;;;44.70;39.95;;;8.40;97.20;;;;;;1707634;28;20268;-77
2022/03/19 06:05:52;;;;;;;46.37;41.57;;;8.40;97.20;;;;;;1707768;28;20206;-76
2022/03/19 06:06:43;;;;;;;45.13;40.40;;;8.40;97.20;;;;;;1707712;28;20330;-76
2022/03/19 06:07:35;;;;;;;43.80;39.28;;;8.40;97.20;;;;;;1707750;28;20583;-76
2022/03/19 06:08:26;;;;;;;46.88;42.00;;;8.40;97.20;;;;;;1707338;28;20261;-76
2022/03/19 06:09:17;;;;;;;48.30;41.00;;;8.40;97.20;;;;;;1707765;28;20206;-76
2022/03/19 06:10:09;;;;;;;45.92;40.65;;;8.50;97.20;;;;;;1707595;28;20245;-76
2022/03/19 06:11:01;;;;;;;45.25;40.55;;;8.50;97.20;;;;;;1707605;28;20245;-77
2022/03/19 06:11:51;;;;;;;44.90;40.08;;;8.50;97.20;;;;;;1707840;28;20206;-76
2022/03/19 06:12:46;;;;;;;48.27;40.27;;;8.50;97.20;;;;;;1707697;28;20198;-77
2022/03/19 06:13:37;;;;;;;47.15;39.72;;;8.50;97.20;;;;;;1707604;28;20230;-76
2022/03/19 06:14:29;;;;;;;45.13;40.07;;;8.50;97.20;;;;;;1707727;28;20206;-77
2022/03/19 06:15:19;;;;;;;45.60;39.58;;;8.50;97.20;;;;;;1711495;28;20508;-77
2022/03/19 06:16:12;;;;;;;44.50;39.67;;;8.50;97.20;;;;;;1714263;28;20208;-76
2022/03/19 06:17:03;;;;;;;43.92;39.45;;;8.50;97.20;;;;;;1714332;28;20711;-77
2022/03/19 06:17:55;;;;;;;42.88;38.42;;;8.50;97.20;;;;;;1714131;28;20618;-76
2022/03/19 06:18:49;;;;;;;43.92;39.45;;;8.50;97.20;;;;;;1713957;28;20202;-76
2022/03/19 06:19:41;;;;;;;44.92;40.05;;;8.50;97.20;;;;;;1714161;28;20202;-77
2022/03/19 06:20:32;;;;;;;44.53;39.47;;;8.50;97.20;;;;;;1714168;28;20283;-77
2022/03/19 06:21:24;;;;;;;43.83;39.30;;;8.50;97.20;;;;;;1714281;28;20212;-77
2022/03/19 06:22:14;;;;;;;44.45;39.47;;;8.60;97.20;;;;;;1714336;28;20206;-77
2022/03/19 06:23:06;;;;;;;48.20;41.13;;;8.60;97.20;;;;;;1714254;28;20202;-76
2022/03/19 06:23:57;;;;;;;44.40;39.15;;;8.60;97.20;;;;;;1714276;28;20206;-77
2022/03/19 06:24:48;;;;;;;42.77;38.17;;;8.60;97.20;;;;;;1714322;28;20212;-76
2022/03/19 06:25:39;;;;;;;43.85;38.78;;;8.60;97.20;;;;;;1714173;28;20202;-76
2022/03/19 06:26:31;;;;;;;43.67;39.07;;;8.60;97.20;;;;;;1714262;28;20197;-76
2022/03/19 06:27:22;;;;;;;46.63;39.63;;;8.60;97.20;;;;;;1714311;28;20329;-77
2022/03/19 06:28:14;;;;;;;44.03;39.53;;;8.60;97.20;;;;;;1713879;28;20205;-77
2022/03/19 06:29:05;;;;;;;42.70;38.28;;;8.60;97.20;;;;;;1714140;28;20933;-77
2022/03/19 06:29:56;;;;;;;43.67;39.17;;;8.60;97.20;;;;;;1707698;28;20674;-76
2022/03/19 06:30:48;;;;;;;44.85;40.10;;;8.60;97.20;;;;;;1707460;28;20470;-76
2022/03/19 06:31:41;;;;;;;46.35;41.53;;;8.60;97.20;;;;;;1711824;28;20262;-76
2022/03/19 06:32:31;;;;;;;46.50;39.90;;;8.60;97.20;;;;;;1714153;28;20225;-76
2022/03/19 06:33:23;;;;;;;44.90;40.00;;;8.60;97.20;;;;;;1714252;28;20194;-76
2022/03/19 06:34:14;;;;;;;43.67;39.03;;;8.60;97.20;;;;;;1714122;28;20244;-76
2022/03/19 06:35:06;;;;;;;42.10;37.57;;;8.60;97.20;;;;;;1714164;28;20205;-76
2022/03/19 06:37:21;;;;;;;45.58;40.55;;;8.70;97.20;;;;;;1714272;28;20245;-76
2022/03/19 06:38:13;;;;;;;43.72;39.33;;;8.70;97.20;;;;;;1713113;28;20305;-76
2022/03/19 06:39:05;;;;;;;44.17;39.63;;;8.70;97.20;;;;;;1713412;28;20208;-77
2022/03/19 06:39:57;;;;;;;43.85;39.15;;;8.80;97.20;;;;;;1714128;28;20216;-77
2022/03/19 06:40:48;;;;;;;42.88;38.47;;;8.80;97.20;;;;;;1714102;28;20230;-76
2022/03/19 06:41:40;;;;;;;43.20;38.80;;;8.80;97.20;;;;;;1714181;28;20201;-76
2022/03/19 06:42:30;;;;;;;44.30;39.60;;;8.80;97.20;;;;;;1714091;28;20205;-77
2022/03/19 06:43:22;;;;;;;42.27;37.93;;;8.80;97.20;;;;;;1714166;28;20204;-77
2022/03/19 06:44:13;;;;;;;42.10;37.70;;;8.80;97.20;;;;;;1714255;28;20842;-76
2022/03/19 06:45:06;;;;;;;44.07;39.37;;;8.80;97.20;;;;;;1714064;28;20567;-77
2022/03/19 06:45:58;;;;;;;43.25;38.38;;;8.80;97.20;;;;;;1714020;28;20252;-77
2022/03/19 06:46:51;;;;;;;42.05;37.58;;;8.80;97.20;;;;;;1714141;28;20202;-77
2022/03/19 06:47:42;;;;;;;47.13;38.17;;;8.80;97.20;;;;;;1714166;28;20201;-76
2022/03/19 06:48:33;;;;;;;41.30;36.90;;;8.80;97.20;;;;;;1713691;28;20202;-77
2022/03/19 06:49:26;;;;;;;42.10;37.63;;;8.80;97.20;;;;;;1713912;28;20206;-76
2022/03/19 06:50:17;;;;;;;41.53;37.13;;;8.80;97.20;;;;;;1714017;28;20676;-76
2022/03/19 06:51:08;;;;;;;43.95;38.30;;;8.80;97.20;;;;;;1714058;28;20210;-76
2022/03/19 06:52:00;;;;;;;41.67;37.33;;;8.90;97.20;;;;;;1714154;28;20201;-77
2022/03/19 06:52:51;;;;;;;44.70;39.97;;;8.90;97.20;;;;;;1712428;28;20213;-76
2022/03/19 06:53:42;;;;;;;42.67;36.97;;;8.90;97.20;;;;;;1707588;28;20277;-76
2022/03/19 06:54:34;;;;;;;43.03;38.47;;;8.90;97.20;;;;;;1707381;28;20252;-77
2022/03/19 06:55:25;;;;;;;42.50;38.00;;;8.90;97.20;;;;;;1707398;28;20203;-77
2022/03/19 06:56:17;;;;;;;40.63;36.23;;;8.90;97.20;;;;;;1707444;28;20684;-76
2022/03/19 06:57:08;;;;;;;41.65;37.35;;;8.90;97.20;;;;;;1707097;28;20214;-76
2022/03/19 06:57:59;;;;;;;43.37;38.87;;;8.90;97.20;;;;;;1707363;28;20269;-77
2022/03/19 06:58:50;;;;;;;41.83;37.38;;;8.90;97.20;;;;;;1707168;28;20257;-76
2022/03/19 06:59:42;;;;;;;40.67;36.47;;;8.90;97.20;;;;;;1707344;28;20206;-76
2022/03/19 07:00:33;;;;;;;42.63;38.30;;;9.00;97.20;;;;;;1707192;28;20340;-76
2022/03/19 07:01:24;;;;;;;41.50;37.20;;;9.00;97.20;;;;;;1707626;28;20203;-77
2022/03/19 07:02:17;;;;;;;41.15;36.75;;;9.00;97.20;;;;;;1707295;28;20237;-76
2022/03/19 07:03:09;;;;;;;42.80;38.30;;;9.00;97.20;;;;;;1707376;28;20230;-76
2022/03/19 07:03:59;;;;;;;40.45;36.20;;;9.10;97.20;;;;;;1707354;28;20237;-77
2022/03/19 07:04:51;;;;;;;41.80;37.50;;;9.10;97.20;;;;;;1707391;28;20209;-76
2022/03/19 07:05:42;;;;;;;41.03;36.58;;;9.10;97.20;;;;;;1707457;28;20566;-76
2022/03/19 07:06:34;;;;;;;43.53;38.90;;;9.20;97.20;;;;;;1707289;28;20313;-76
2022/03/19 07:07:24;;;;;;;42.70;38.10;;;9.10;97.20;;;;;;1707363;28;20260;-76
2022/03/19 07:08:16;;;;;;;39.93;35.70;;;9.20;97.20;;;;;;1707165;28;20210;-77
2022/03/19 07:09:07;;;;;;;41.42;37.03;;;9.20;97.20;;;;;;1707265;28;20213;-77
2022/03/19 07:09:59;;;;;;;41.17;36.67;;;9.20;97.20;;;;;;1708289;28;20209;-76
2022/03/19 07:10:50;;;;;;;41.90;36.40;;;9.20;97.20;;;;;;1712400;28;20719;-76
2022/03/19 07:11:42;;;;;;;41.77;37.33;;;9.20;97.20;;;;;;1713999;28;20735;-76
2022/03/19 07:12:40;;;;;;;42.22;37.80;;;9.20;97.20;;;;;;1713989;28;20246;-76
2022/03/19 07:13:32;;;;;;;40.83;36.72;;;9.30;97.20;;;;;;1713975;28;20260;-76
2022/03/19 07:14:23;;;;;;;42.50;38.05;;;9.30;97.20;;;;;;1713924;28;20217;-76
2022/03/19 07:15:15;;;;;;;40.83;36.70;;;9.30;97.20;;;;;;1713963;28;20216;-77
2022/03/19 07:16:06;;;;;;;42.22;37.72;;;9.30;97.20;;;;;;1713901;28;20513;-77
2022/03/19 07:16:58;;;;;;;41.87;37.33;;;9.30;97.20;;;;;;1713918;28;20212;-76
2022/03/19 07:17:50;;;;;;;42.33;37.75;;;9.30;97.20;;;;;;1713976;28;20318;-77
2022/03/19 07:18:42;;;;;;;41.38;37.10;;;9.40;97.20;;;;;;1713689;28;20553;-76
2022/03/19 07:19:34;;;;;;;42.60;38.13;;;9.40;97.20;;;;;;1713820;28;20217;-76
2022/03/19 07:20:25;;;;;;;41.90;37.63;;;9.40;97.20;;;;;;1713999;28;20202;-77
2022/03/19 07:21:16;;;;;;;44.88;40.05;;;9.40;97.20;;;;;;1713889;28;20212;-76
2022/03/19 07:22:08;;;;;;;42.23;37.40;;;9.40;97.20;;;;;;1713968;28;20197;-77
2022/03/19 07:23:01;;;;;;;40.33;36.03;;;9.40;97.20;;;;;;1713902;28;20485;-76
2022/03/19 07:23:53;;;;;;;42.55;38.17;;;9.50;97.20;;;;;;1713915;28;20653;-77
2022/03/19 07:24:44;;;;;;;42.50;38.00;;;9.50;97.20;;;;;;1713999;28;20206;-76
2022/03/19 07:25:37;;;;;;;43.80;37.50;;;9.50;97.20;;;;;;1714004;28;20210;-76
2022/03/19 07:26:28;;;;;;;40.72;36.47;;;9.50;97.20;;;;;;1712367;28;20206;-76
2022/03/19 07:27:20;;;;;;;41.13;36.88;;;9.50;97.20;;;;;;1713932;28;20198;-77
2022/03/19 07:28:12;;;;;;;42.20;37.80;;;9.50;97.20;;;;;;1713358;28;20198;-77
2022/03/19 07:29:04;;;;;;;43.28;38.78;;;9.60;97.20;;;;;;1713941;28;20244;-76
2022/03/19 07:29:55;;;;;;;42.22;37.92;;;9.60;97.20;;;;;;1713848;28;20611;-76
2022/03/19 07:30:47;;;;;;;43.20;38.50;;;9.60;97.20;;;;;;1713746;28;20607;-76
2022/03/19 07:31:38;;;;;;;42.97;38.45;;;9.60;97.20;;;;;;1714110;28;20205;-80
2022/03/19 07:32:30;;;;;;;40.20;35.77;;;9.60;97.20;;;;;;1714795;28;20197;-78
2022/03/19 07:33:22;;;;;;;40.78;36.45;;;9.60;97.20;;;;;;1714170;28;20233;-77
2022/03/19 07:34:14;;;;;;;41.55;37.10;;;9.70;97.20;;;;;;1714262;28;20206;-78
2022/03/19 07:35:06;;;;;;;41.38;37.13;;;9.70;97.20;;;;;;1714050;28;20292;-77
2022/03/19 07:35:58;;;;;;;40.50;36.33;;;9.70;97.20;;;;;;1712043;28;20219;-78
2022/03/19 07:36:48;;;;;;;43.22;37.97;;;9.70;97.20;;;;;;1713776;28;20709;-77
2022/03/19 07:37:41;;;;;;;41.77;36.37;;;9.70;97.20;;;;;;1710002;28;20658;-78
2022/03/19 07:38:32;;;;;;;39.38;35.42;;;9.70;97.20;;;;;;1710554;28;20654;-77
2022/03/19 07:39:23;;;;;;;39.67;35.37;;;9.70;97.20;;;;;;1709659;28;20655;-77
2022/03/19 07:41:45;;;;;;;43.40;36.75;;;9.80;97.20;;;;;;1708933;28;20473;-78
2022/03/19 07:42:37;;;;;;;40.05;35.25;;;9.80;97.20;;;;;;1707388;29;20210;-78
2022/03/19 07:43:28;;;;;;;40.15;35.85;;;9.80;97.20;;;;;;1707313;28;20257;-78
2022/03/19 07:44:20;;;;;;;39.33;35.13;;;9.90;97.20;;;;;;1706727;28;20202;-78
2022/03/19 07:45:11;;;;;;;39.25;35.22;;;9.90;97.20;;;;;;1706678;28;20242;-76
2022/03/19 07:46:03;;;;;;;40.63;36.23;;;9.90;97.20;;;;;;1706654;28;20202;-76
2022/03/19 07:46:53;;;;;;;39.40;35.40;;;9.90;97.20;;;;;;1706550;28;20213;-76
2022/03/19 07:47:45;;;;;;;40.27;36.07;;;9.90;97.20;;;;;;1707757;28;20294;-76
2022/03/19 07:48:37;;;;;;;38.97;35.08;;;10.00;97.20;;;;;;1706426;28;20210;-78
2022/03/19 07:49:29;;;;;;;38.28;33.75;;;10.00;97.20;;;;;;1707127;28;20207;-77
2022/03/19 07:50:20;;;;;;;35.67;31.88;;;10.00;97.20;;;;;;1707224;28;20253;-76
2022/03/19 07:51:13;;;;;;;38.40;34.58;;;10.00;97.20;;;;;;1707187;28;20577;-76
2022/03/19 07:52:05;;;;;;;39.35;35.30;;;10.00;97.20;;;;;;1707163;28;20211;-77
2022/03/19 07:52:58;;;;;;;39.03;34.78;;;10.10;97.20;;;;;;1707170;28;20205;-76
2022/03/19 07:53:48;;;;;;;38.20;34.35;;;10.10;97.20;;;;;;1708930;28;20249;-77
2022/03/19 07:54:40;;;;;;;38.80;34.60;;;10.10;97.20;;;;;;1713853;28;20208;-76
2022/03/19 07:55:32;;;;;;;38.95;34.22;;;10.20;97.20;;;;;;1714032;28;20210;-77
2022/03/19 07:56:24;;;;;;;37.50;33.67;;;10.20;97.20;;;;;;1708012;28;20313;-76
2022/03/19 07:57:15;;;;;;;40.38;34.55;;;10.20;97.20;;;;;;1707062;29;20356;-76
2022/03/19 07:58:06;;;;;;;36.93;33.10;;;10.30;97.20;;;;;;1706885;29;20206;-76
2022/03/19 07:58:57;;;;;;;38.15;34.15;;;10.30;97.20;;;;;;1707093;29;20214;-76
2022/03/19 07:59:49;;;;;;;38.87;34.77;;;10.30;97.20;;;;;;1706995;29;20205;-76
2022/03/19 08:00:40;;;;;;;38.50;34.42;;;10.30;97.20;;;;;;1707071;28;20245;-76
2022/03/19 08:01:32;;;;;;;36.27;32.47;;;10.30;97.20;;;;;;1707111;28;20293;-76
2022/03/19 08:02:22;;;;;;;36.60;32.75;;;10.30;97.20;;;;;;1710041;28;20482;-76
2022/03/19 08:03:14;;;;;;;34.93;31.33;;;10.30;97.20;;;;;;1713733;28;20209;-76
2022/03/19 08:04:06;;;;;;;35.60;31.88;;;10.30;97.20;;;;;;1708759;28;20207;-76
2022/03/19 08:04:58;;;;;;;38.05;33.30;;;10.30;97.20;;;;;;1707044;28;20210;-76
2022/03/19 08:05:49;;;;;;;37.50;33.50;;;10.40;97.20;;;;;;1707176;28;20659;-77
2022/03/19 08:06:40;;;;;;;37.20;33.13;;;10.40;97.20;;;;;;1707124;28;20658;-77
2022/03/19 08:07:31;;;;;;;36.55;32.65;;;10.40;97.20;;;;;;1707180;28;20206;-77
2022/03/19 08:08:23;;;;;;;37.00;33.00;;;10.40;97.20;;;;;;1706948;28;20208;-76
2022/03/19 08:09:14;;;;;;;35.75;31.27;;;10.40;97.20;;;;;;1708000;28;20214;-76
2022/03/19 08:10:07;;;;;;;34.55;31.05;;;10.40;97.20;;;;;;1708408;28;20206;-76
2022/03/19 08:10:58;;;;;;;35.70;31.52;;;10.50;97.20;;;;;;1708247;28;20281;-76
2022/03/19 08:11:51;;;;;;;35.07;31.33;;;10.50;97.20;;;;;;1708340;28;20206;-77
2022/03/19 08:12:43;;;;;;;34.42;30.77;;;10.50;97.20;;;;;;1708490;28;20580;-77
2022/03/19 08:13:35;;;;;;;35.13;31.40;;;10.50;97.20;;;;;;1708307;28;20198;-77
2022/03/19 08:14:27;;;;;;;35.50;31.60;;;10.50;97.20;;;;;;1708286;28;20583;-77
2022/03/19 08:15:18;;;;;;;35.03;31.33;;;10.60;97.20;;;;;;1708362;28;20199;-77
2022/03/19 08:16:09;;;;;;;35.72;31.83;;;10.60;97.20;;;;;;1708224;28;20254;-77
2022/03/19 08:17:01;;;;;;;34.83;31.13;;;10.60;97.20;;;;;;1708267;28;20209;-77
2022/03/19 08:17:51;;;;;;;34.67;30.70;;;10.70;97.20;;;;;;1708176;28;20489;-76
2022/03/19 08:18:44;;;;;;;36.10;32.20;;;10.70;97.20;;;;;;1707975;28;20210;-76
2022/03/19 08:19:37;;;;;;;35.47;31.65;;;10.70;97.20;;;;;;1708105;28;20582;-77
2022/03/19 08:20:29;;;;;;;35.15;30.73;;;10.70;97.20;;;;;;1708286;28;20257;-77
2022/03/19 08:21:20;;;;;;;35.45;30.95;;;10.80;97.20;;;;;;1708353;28;20207;-77
2022/03/19 08:22:11;;;;;;;34.95;29.17;;;10.80;97.20;;;;;;1708523;28;20218;-77
2022/03/19 08:23:03;;;;;;;34.50;30.90;;;10.80;97.20;;;;;;1708510;28;20202;-77
2022/03/19 08:23:54;;;;;;;36.78;32.92;;;10.90;97.20;;;;;;1708566;28;20458;-76
2022/03/19 08:24:46;;;;;;;34.97;29.00;;;10.90;97.20;;;;;;1708551;28;20233;-78
2022/03/19 08:25:37;;;;;;;32.85;29.35;;;10.90;97.20;;;;;;1708334;28;20450;-77
2022/03/19 08:26:29;;;;;;;33.05;29.75;;;11.00;97.20;;;;;;1708234;28;20234;-77
2022/03/19 08:27:20;;;;;;;34.03;30.52;;;11.00;97.20;;;;;;1708209;28;20203;-77
2022/03/19 08:28:12;;;;;;;33.70;30.20;;;11.00;97.20;;;;;;1708008;28;20211;-77
2022/03/19 08:29:03;;;;;;;32.50;27.50;;;11.00;97.20;;;;;;1708675;28;20202;-76
2022/03/19 08:29:55;;;;;;;35.37;29.30;;;11.00;97.20;;;;;;1708148;29;20203;-77
2022/03/19 08:30:47;;;;;;;32.33;28.70;;;11.00;97.20;;;;;;1713619;28;20483;-75
2022/03/19 08:31:37;;;;;;;33.38;29.55;;;11.10;97.20;;;;;;1714842;28;20209;-75
2022/03/19 08:32:29;;;;;;;33.20;29.03;;;11.10;97.20;;;;;;1711457;28;20289;-77
2022/03/19 08:33:20;;;;;;;32.90;29.33;;;11.00;97.20;;;;;;1710308;28;20673;-77
2022/03/19 08:34:12;;;;;;;31.17;27.90;;;11.10;97.20;;;;;;1715090;28;20661;-77
2022/03/19 08:35:04;;;;;;;33.45;29.95;;;11.10;97.20;;;;;;1711489;28;20202;-78
2022/03/19 08:35:56;;;;;;;33.58;28.67;;;11.10;97.20;;;;;;1708409;28;20213;-78
2022/03/19 08:36:47;;;;;;;30.52;27.42;;;11.10;97.20;;;;;;1708400;28;20202;-77
2022/03/19 08:37:39;;;;;;;31.90;28.50;;;11.10;97.20;;;;;;1708381;28;20285;-77
2022/03/19 08:40:48;;;;;;;31.05;27.75;;;11.20;97.20;;;;;;1715134;28;20224;-77
2022/03/19 08:41:40;;;;;;;32.90;29.10;;;11.30;97.20;;;;;;1715302;28;20237;-78
2022/03/19 08:42:33;;;;;;;32.45;28.95;;;11.30;97.20;;;;;;1715084;28;20205;-77
2022/03/19 08:43:24;;;;;;;32.40;28.95;;;11.40;97.20;;;;;;1715254;28;20281;-77
2022/03/19 08:44:15;;;;;;;30.92;27.67;;;11.40;97.20;;;;;;1714884;28;20252;-78
2022/03/19 08:45:07;;;;;;;31.20;27.83;;;11.40;97.20;;;;;;1715387;28;20209;-79
2022/03/19 08:45:58;;;;;;;30.23;27.13;;;11.50;97.20;;;;;;1714902;28;20198;-76
2022/03/19 08:46:50;;;;;;;30.00;26.80;;;11.50;97.20;;;;;;1714883;28;20202;-77
2022/03/19 08:47:41;;;;;;;30.23;26.95;;;11.50;97.20;;;;;;1715031;28;20237;-77
2022/03/19 08:48:32;;;;;;;30.70;27.40;;;11.60;97.20;;;;;;1714657;28;20205;-77
2022/03/19 08:49:23;;;;;;;31.63;28.33;;;11.60;97.20;;;;;;1714963;28;20625;-77
2022/03/19 08:50:17;;;;;;;29.50;26.50;;;11.60;97.20;;;;;;1714784;28;20551;-77
2022/03/19 08:52:18;;;;;;;28.85;25.95;;;11.70;97.20;;;;;;1715025;28;20204;-77
2022/03/19 08:53:09;;;;;;;30.60;27.38;;;11.70;97.20;;;;;;1715146;28;20677;-77
2022/03/19 08:54:03;;;;;;;31.23;27.90;;;11.70;97.20;;;;;;1715039;28;20677;-77
2022/03/19 08:54:55;;;;;;;31.70;28.30;;;11.80;97.20;;;;;;1715312;28;20214;-77
2022/03/19 08:55:46;;;;;;;32.03;26.77;;;11.80;97.20;;;;;;1715081;28;20304;-78
2022/03/19 08:56:38;;;;;;;30.03;26.67;;;11.90;97.20;;;;;;1715019;28;20225;-78
2022/03/19 08:57:29;;;;;;;30.27;26.27;;;11.90;97.20;;;;;;1715111;28;20213;-78
2022/03/19 08:58:20;;;;;;;27.83;24.83;;;11.90;97.20;;;;;;1714859;28;20209;-78
2022/03/19 08:59:12;;;;;;;29.25;26.17;;;12.00;97.20;;;;;;1714857;28;20205;-77
2022/03/19 09:00:05;;;;;;;29.38;25.85;;;12.00;97.20;;;;;;1714982;28;20197;-77
2022/03/19 09:00:57;;;;;;;28.83;25.70;;;12.00;97.20;;;;;;1714732;28;20250;-78
2022/03/19 09:01:51;;;;;;;30.92;27.63;;;12.10;97.20;;;;;;1714914;28;20257;-77
2022/03/19 09:02:42;;;;;;;30.00;26.25;;;12.10;97.20;;;;;;1714935;28;20210;-77
2022/03/19 09:03:34;;;;;;;27.30;24.50;;;12.20;97.20;;;;;;1715179;28;20198;-78
2022/03/19 09:04:25;;;;;;;30.05;26.98;;;12.20;97.20;;;;;;1715460;28;20449;-78
2022/03/19 09:05:18;;;;;;;31.03;25.70;;;12.20;97.20;;;;;;1715017;28;20213;-77
2022/03/19 09:06:14;;;;;;;28.40;25.60;;;12.20;97.20;;;;;;1714737;28;20457;-77
2022/03/19 09:07:06;;;;;;;27.20;24.35;;;12.30;97.20;;;;;;1715019;28;20202;-78
2022/03/19 09:07:57;;;;;;;27.55;24.38;;;12.30;97.20;;;;;;1715020;28;20240;-78
2022/03/19 09:08:49;;;;;;;28.10;24.73;;;12.30;97.20;;;;;;1714708;28;20213;-77
2022/03/19 09:09:40;;;;;;;27.95;24.98;;;12.30;97.20;;;;;;1715085;28;20214;-78
2022/03/19 09:10:32;;;;;;;28.98;25.90;;;12.40;97.20;;;;;;1715114;28;20197;-78
2022/03/19 09:11:23;;;;;;;29.98;26.00;;;12.50;97.20;;;;;;1715364;28;20240;-77
2022/03/19 09:12:15;;;;;;;27.58;24.77;;;12.50;97.20;;;;;;1714649;28;20228;-76
2022/03/19 09:13:07;;;;;;;27.92;24.92;;;12.60;97.20;;;;;;1714608;28;20214;-76
2022/03/19 09:13:59;;;;;;;27.10;24.30;;;12.70;97.20;;;;;;1714860;28;20257;-77
2022/03/19 09:14:50;;;;;;;26.85;24.15;;;12.70;97.20;;;;;;1714893;28;20697;-77
2022/03/19 09:15:41;;;;;;;28.80;25.23;;;12.90;97.20;;;;;;1714743;28;20692;-77
2022/03/19 09:16:34;;;;;;;26.67;24.07;;;13.00;97.20;;;;;;1714662;28;20701;-77
2022/03/19 09:17:24;;;;;;;27.30;24.58;;;13.10;97.20;;;;;;1714665;28;20507;-76
2022/03/19 09:18:16;;;;;;;26.17;23.37;;;13.30;97.20;;;;;;1714431;28;20209;-76
2022/03/19 09:19:07;;;;;;;27.08;24.17;;;13.50;97.20;;;;;;1714700;28;20348;-76
2022/03/19 09:19:59;;;;;;;27.20;24.23;;;13.60;96.50;;;;;;1714839;28;20269;-77
2022/03/19 09:20:51;;;;;;;27.73;24.77;;;13.70;96.30;;;;;;1714803;28;20652;-78
2022/03/19 09:21:43;;;;;;;26.05;23.45;;;13.90;96.30;;;;;;1714934;28;20205;-77
2022/03/19 09:22:34;;;;;;;26.55;23.98;;;14.00;96.20;;;;;;1714728;28;20210;-77
2022/03/19 09:23:26;;;;;;;27.30;23.43;;;14.10;95.60;;;;;;1714839;28;20213;-77
2022/03/19 09:24:18;;;;;;;27.48;24.75;;;14.20;95.20;;;;;;1714888;28;20212;-78
2022/03/19 09:25:09;;;;;;;28.60;25.67;;;14.40;94.80;;;;;;1714951;28;20206;-77
2022/03/19 09:26:01;;;;;;;26.23;23.60;;;14.50;94.10;;;;;;1714823;28;20202;-78
2022/03/19 09:26:52;;;;;;;26.17;23.58;;;14.60;94.00;;;;;;1712732;28;20205;-77
2022/03/19 09:27:43;;;;;;;26.00;23.50;;;14.80;94.10;;;;;;1708061;29;20199;-76
2022/03/19 09:28:35;;;;;;;26.00;23.50;;;15.00;93.40;;;;;;1707633;28;20206;-77
2022/03/19 09:29:26;;;;;;;27.75;25.08;;;15.10;92.60;;;;;;1708022;29;20202;-76
2022/03/19 09:30:18;;;;;;;27.73;24.98;;;15.20;92.20;;;;;;1708036;29;20209;-77
2022/03/19 09:31:09;;;;;;;28.73;25.10;;;15.40;92.20;;;;;;1708022;29;20217;-77
2022/03/19 09:32:01;;;;;;;28.40;25.70;;;15.50;92.10;;;;;;1708302;29;20283;-77
2022/03/19 09:32:56;;;;;;;27.05;24.50;;;15.60;91.90;;;;;;1708491;29;20206;-77
2022/03/19 09:33:48;;;;;;;26.45;23.77;;;15.70;91.00;;;;;;1709476;28;20207;-76
2022/03/19 09:34:39;;;;;;;28.42;25.58;;;15.80;90.60;;;;;;1709533;28;20753;-77
2022/03/19 09:35:31;;;;;;;27.15;24.35;;;15.90;90.50;;;;;;1709818;28;20234;-77
2022/03/19 09:36:24;;;;;;;27.83;25.00;;;16.00;90.30;;;;;;1709407;29;20257;-77
2022/03/19 09:37:16;;;;;;;28.27;25.65;;;16.00;89.80;;;;;;1709658;29;20215;-77
2022/03/19 09:38:06;;;;;;;27.10;24.30;;;16.10;89.70;;;;;;1709605;29;20261;-77
2022/03/19 09:38:58;;;;;;;26.97;24.43;;;16.30;89.90;;;;;;1710356;29;20210;-76
2022/03/19 09:39:49;;;;;;;28.42;25.73;;;16.30;89.20;;;;;;1709805;29;20206;-77
2022/03/19 09:40:41;;;;;;;27.95;25.23;;;16.50;88.80;;;;;;1709392;29;20250;-77
2022/03/19 09:41:33;;;;;;;28.35;25.65;;;16.60;88.80;;;;;;1709525;29;20202;-77
2022/03/19 09:42:27;;;;;;;28.10;25.15;;;16.70;89.10;;;;;;1709046;29;20225;-77
2022/03/19 09:43:17;;;;;;;27.90;25.20;;;16.80;88.60;;;;;;1708931;28;20207;-77
2022/03/19 09:44:11;;;;;;;32.87;26.80;;;16.90;88.40;;;;;;1708853;29;20669;-77
2022/03/19 09:45:03;;;;;;;26.98;24.38;;;17.00;88.40;;;;;;1709244;29;20310;-77
2022/03/19 09:45:55;;;;;;;28.25;25.65;;;17.10;88.60;;;;;;1709540;29;20649;-76
2022/03/19 09:46:47;;;;;;;28.20;25.40;;;17.30;89.30;;;;;;1709497;29;20202;-77
2022/03/19 09:47:39;;;;;;;28.70;26.10;;;17.40;89.00;;;;;;1709791;29;20209;-77
2022/03/19 09:48:30;;;;;;;30.17;27.17;;;17.50;89.00;;;;;;1709280;29;20792;-77
2022/03/19 09:49:22;;;;;;;31.23;27.80;;;17.60;89.20;;;;;;1709545;28;20683;-77
2022/03/19 09:50:13;;;;;;;29.55;26.83;;;17.70;88.70;;;;;;1709573;29;20868;-77
2022/03/19 09:51:09;;;;;;;29.30;26.40;;;17.90;88.90;;;;;;1709967;29;20554;-77
2022/03/19 09:52:04;;;;;;;28.67;25.73;;;18.00;88.10;;;;;;1712852;28;20441;-77
2022/03/19 09:52:57;;;;;;;29.25;26.55;;;18.00;88.70;;;;;;1712702;28;20566;-78
2022/03/19 09:53:49;;;;;;;28.75;26.05;;;18.10;88.40;;;;;;1713687;28;20286;-77
2022/03/19 09:54:41;;;;;;;28.65;26.02;;;18.30;88.40;;;;;;1712918;28;20198;-78
2022/03/19 09:55:34;;;;;;;44.65;29.17;;;18.30;88.60;;;;;;1710337;28;20208;-76
2022/03/19 09:56:25;;;;;;;33.65;26.58;;;18.40;88.10;;;;;;1711822;28;20229;-76
2022/03/19 09:57:16;;;;;;;28.87;26.17;;;18.50;87.40;;;;;;1712437;28;20253;-75
2022/03/19 09:58:07;;;;;;;29.20;26.48;;;18.50;87.40;;;;;;1710817;28;20445;-76
2022/03/19 09:58:59;;;;;;;28.27;25.73;;;18.60;87.40;;;;;;1711893;28;20199;-76
2022/03/19 09:59:51;;;;;;;30.95;27.75;;;18.60;87.50;;;;;;1711972;28;20834;-76
2022/03/19 10:00:42;;;;;;;31.58;28.13;;;18.60;87.40;;;;;;1712552;28;20305;-76
2022/03/19 10:01:38;;;;;;;29.40;26.48;;;18.70;87.40;;;;;;1715104;28;20194;-79
2022/03/19 10:02:29;;;;;;;30.30;27.33;;;18.70;88.50;;;;;;1716650;28;20205;-77
2022/03/19 10:03:23;;;;;;;30.33;27.10;;;18.80;87.90;;;;;;1716075;28;20280;-77
2022/03/19 10:04:17;;;;;;;32.22;28.88;;;18.80;88.40;;;;;;1715337;28;20206;-80
2022/03/19 10:08:40;;;;;;;28.48;25.83;;;;;;;;;;1709826;28;20259;-76
2022/03/19 10:09:31;;;;;;;28.42;25.73;;;23.80;89.80;;;;;;1711168;28;20206;-75
2022/03/19 10:10:31;;;;;;;27.10;24.50;;;25.80;85.10;;;;;;1711258;28;20207;-75
2022/03/19 10:11:22;;;;;;;29.90;27.05;;;28.20;80.30;;;;;;1709945;28;20217;-75
2022/03/19 10:12:17;;;;;;;28.30;25.90;;;30.20;76.10;;;;;;1709811;28;20189;-75
2022/03/19 10:13:09;;;;;;;28.17;25.50;;;32.00;72.00;;;;;;1710506;28;20594;-75
2022/03/19 10:14:06;;;;;;;26.75;24.23;;;33.70;68.90;;;;;;1711217;28;20678;-75
2022/03/19 10:14:57;;;;;;;27.80;25.40;;;35.20;65.60;;;;;;1710063;28;20693;-75
2022/03/19 10:15:49;;;;;;;29.20;26.60;;;36.00;63.30;;;;;;1711035;28;20190;-75
2022/03/19 10:16:40;;;;;;;52.72;28.17;;;37.20;61.80;;;;;;1711196;28;20210;-75
2022/03/19 10:17:33;;;;;;;27.17;24.87;;;38.00;60.40;;;;;;1709484;28;20309;-75
2022/03/19 10:18:27;;;;;;;28.27;25.88;;;38.80;59.80;;;;;;1709300;28;20442;-75
2022/03/19 10:19:20;;;;;;;31.65;27.42;;;;;;;;;;1712248;28;20229;-76
2022/03/19 10:20:12;;;;;;;27.57;25.17;;;39.00;56.30;;;;;;1710993;28;20205;-76
2022/03/19 10:21:14;;;;;;;29.23;26.30;;;38.70;57.80;;;;;;1711904;28;20822;-75
2022/03/19 10:22:07;;;;;;;27.73;25.23;;;37.70;57.00;;;;;;1711746;28;20430;-75
2022/03/19 10:23:00;;;;;;;27.60;25.30;;;36.70;57.40;;;;;;1710588;28;20448;-75
2022/03/19 10:23:52;;;;;;;29.13;26.50;;;35.60;57.60;;;;;;1712359;28;20457;-75
2022/03/19 10:24:43;;;;;;;28.70;26.00;;;34.60;58.60;;;;;;1712643;28;20434;-76
2022/03/19 10:25:34;;;;;;;27.80;25.03;;;33.70;58.70;;;;;;1711643;28;20445;-74
2022/03/19 10:26:28;;;;;;;26.20;24.00;;;32.80;59.20;;;;;;1711371;28;20431;-75
2022/03/19 10:27:19;;;;;;;27.40;25.00;;;31.90;59.80;;;;;;1712694;28;20197;-75
2022/03/19 10:28:11;;;;;;;27.33;25.03;;;31.20;60.80;;;;;;1711379;28;20448;-75
2022/03/19 10:29:05;;;;;;;27.90;25.60;;;30.50;61.30;;;;;;1712441;28;20202;-75
2022/03/19 10:30:08;;;;;;;26.05;23.83;;;29.90;61.50;;;;;;1711030;28;20445;-76
2022/03/19 10:31:01;;;;;;;26.30;23.80;;;29.40;62.20;;;;;;1711150;28;20224;-75
2022/03/19 10:31:56;;;;;;;26.35;24.00;;;29.00;63.00;;;;;;1711683;28;20198;-76
2022/03/19 10:32:51;;;;;;;26.60;24.20;;;28.70;63.70;;;;;;1711999;28;20285;-75
2022/03/19 10:33:49;;;;;;;27.42;25.20;;;28.40;64.00;;;;;;1711756;28;20206;-76
2022/03/19 10:34:41;;;;;;;28.53;25.97;;;28.10;64.00;;;;;;1710942;28;20194;-74